CYQW

North Battleford Airport

North Battleford, Saskatchewan, Canada
METAR CYQW 180200Z AUTO 25008KT 9SM CLR M01/M05 A2947 RMK SLP009
Observed Flight Rules
Dec-18 @ 02:00 UTC (an hour ago) Visual Flight Rules
Wind Visibility Clouds
250° at 8 knots 9 miles
  • Clear skies
Temperatures Readings
Current -1°C / 30°F
Dewpoint -5°C / 23°F
Humidity 75%
Altimeter 29.47" Hg
Pressure 1000.9 hPa
Elevation 548
METAR CYQW 180200Z AUTO 25008KT 9SM CLR M01/M05 A2947 RMK SLP009
Observed Flight Rules
Dec-18 @ 02:00 UTC
(an hour ago)
VFR
Wind Visibility
250° at 8 knots 9 miles
Clouds
  • Clear skies
Temperature Dewpoint
-1°C / 30°F -5°C / 23°F
Humidity Altimeter Pressure
75% 29.47" Hg 1000.9 hPa